Time;durP1;ratioP1;P1;durP2;ratioP2;P2;SDS_P1;SDS_P2;PMS_P1;PMS_P2;Temp;Humidity;BMP_temperature;BMP_pressure;BME280_temperature;BME280_humidity;BME280_pressure;Samples;Min_cycle;Max_cycle;Signal;HPM_P1;HPM_P2
2023/06/02 00:01:02;;;;;;;9.15;2.47;;;10.90;99.90;;;;;;5049386;28;20041;-81
2023/06/02 00:03:33;;;;;;;9.52;2.53;;;10.90;99.90;;;;;;5068029;28;20072;-82
2023/06/02 00:06:05;;;;;;;10.20;2.88;;;10.90;99.90;;;;;;5085752;28;20040;-81
2023/06/02 00:08:32;;;;;;;9.65;2.65;;;10.90;99.90;;;;;;5077364;28;20044;-82
2023/06/02 00:10:59;;;;;;;9.95;3.03;;;10.90;99.90;;;;;;5099621;28;20050;-82
2023/06/02 00:13:25;;;;;;;11.20;2.85;;;10.90;99.90;;;;;;5091021;28;20052;-82
2023/06/02 00:15:50;;;;;;;12.82;2.83;;;10.90;99.90;;;;;;5068130;28;20052;-82
2023/06/02 00:18:16;;;;;;;9.05;2.67;;;10.90;99.90;;;;;;5065914;28;20519;-82
2023/06/02 00:20:42;;;;;;;8.55;2.50;;;10.90;99.90;;;;;;5068257;28;20087;-82
2023/06/02 00:23:08;;;;;;;11.82;2.95;;;10.90;99.90;;;;;;5081921;28;20044;-82
2023/06/02 00:25:36;;;;;;;9.55;2.65;;;10.90;99.90;;;;;;5085828;28;20111;-82
2023/06/02 00:28:02;;;;;;;11.25;2.80;;;10.80;99.90;;;;;;5085110;28;20052;-83
2023/06/02 00:30:28;;;;;;;10.50;2.53;;;10.90;99.90;;;;;;5086979;28;20083;-82
2023/06/02 00:32:54;;;;;;;9.82;2.30;;;10.90;99.90;;;;;;5087048;28;20071;-82
2023/06/02 00:35:20;;;;;;;8.60;2.70;;;10.90;99.90;;;;;;5106438;28;20055;-82
2023/06/02 00:37:46;;;;;;;17.08;3.10;;;10.90;99.90;;;;;;5088786;28;20062;-82
2023/06/02 00:40:13;;;;;;;8.82;2.40;;;10.90;99.90;;;;;;5087249;28;20058;-82
2023/06/02 00:42:38;;;;;;;12.40;3.22;;;10.90;99.90;;;;;;5073520;28;20098;-82
2023/06/02 00:45:05;;;;;;;9.48;2.67;;;10.90;99.90;;;;;;5085142;28;20040;-82
2023/06/02 00:47:30;;;;;;;10.38;2.58;;;10.80;99.90;;;;;;5085128;28;20048;-81
2023/06/02 00:49:57;;;;;;;8.82;2.95;;;10.90;99.90;;;;;;5083335;28;20063;-83
2023/06/02 00:52:23;;;;;;;10.95;2.15;;;10.80;99.90;;;;;;5070417;28;20036;-82
2023/06/02 00:54:49;;;;;;;9.60;2.45;;;10.80;99.90;;;;;;5093299;28;20102;-82
2023/06/02 00:57:15;;;;;;;9.23;2.28;;;10.80;99.90;;;;;;5065823;28;20462;-82
2023/06/02 00:59:40;;;;;;;10.40;2.58;;;10.80;99.90;;;;;;5086975;28;20044;-82
2023/06/02 01:02:08;;;;;;;8.90;3.13;;;10.80;99.90;;;;;;5075471;28;20423;-81
2023/06/02 01:04:35;;;;;;;8.70;2.60;;;10.80;99.90;;;;;;5066807;28;20049;-82
2023/06/02 01:07:03;;;;;;;10.43;2.22;;;10.80;99.90;;;;;;5086651;28;20063;-82
2023/06/02 01:09:29;;;;;;;7.80;2.15;;;10.90;99.90;;;;;;5067818;28;20039;-82
2023/06/02 01:11:56;;;;;;;9.93;2.15;;;10.90;99.90;;;;;;5049530;28;20064;-82
2023/06/02 01:14:22;;;;;;;9.65;2.58;;;10.80;99.90;;;;;;5072453;28;20066;-82
2023/06/02 01:16:49;;;;;;;6.88;1.92;;;10.80;99.90;;;;;;5074956;28;20037;-82
2023/06/02 01:19:20;;;;;;;12.40;2.70;;;10.80;99.90;;;;;;5086232;28;20063;-82
2023/06/02 01:21:57;;;;;;;8.70;2.47;;;10.80;99.90;;;;;;5081417;28;20484;-82
2023/06/02 01:24:30;;;;;;;9.00;2.55;;;10.80;99.90;;;;;;5083925;28;20047;-83
2023/06/02 01:26:58;;;;;;;13.38;3.17;;;10.80;99.90;;;;;;5089299;28;20131;-82
2023/06/02 01:29:24;;;;;;;10.00;2.38;;;10.80;99.90;;;;;;5072728;28;20526;-82
2023/06/02 01:31:53;;;;;;;8.98;2.33;;;10.80;99.90;;;;;;5081230;28;20041;-82
2023/06/02 01:34:28;;;;;;;9.88;2.38;;;10.70;99.90;;;;;;5075762;28;20055;-82
2023/06/02 01:36:57;;;;;;;11.65;3.42;;;10.70;99.90;;;;;;5088951;28;20487;-81
2023/06/02 01:39:25;;;;;;;13.23;2.90;;;10.70;99.90;;;;;;5089312;28;20048;-82
2023/06/02 01:41:53;;;;;;;14.10;2.58;;;10.70;99.90;;;;;;5086074;28;20772;-81
2023/06/02 01:44:20;;;;;;;12.10;2.80;;;10.70;99.90;;;;;;5077094;28;20044;-82
2023/06/02 01:46:45;;;;;;;7.32;2.40;;;10.60;99.90;;;;;;5072161;28;20093;-82
2023/06/02 01:49:17;;;;;;;11.52;2.45;;;10.70;99.90;;;;;;5099073;28;20044;-82
2023/06/02 01:51:45;;;;;;;7.60;2.40;;;10.70;99.90;;;;;;5094237;28;20120;-82
2023/06/02 01:54:11;;;;;;;13.85;2.50;;;10.60;99.90;;;;;;5069080;28;20044;-82
2023/06/02 01:56:37;;;;;;;12.30;2.40;;;10.70;99.90;;;;;;5069217;28;20048;-82
2023/06/02 01:59:03;;;;;;;7.75;2.10;;;10.60;99.90;;;;;;5068477;28;20041;-82
2023/06/02 02:01:30;;;;;;;11.98;2.50;;;10.70;99.90;;;;;;5083635;28;20048;-82
2023/06/02 02:03:56;;;;;;;8.00;2.40;;;10.60;99.90;;;;;;5083322;28;20047;-82
2023/06/02 02:06:29;;;;;;;8.30;2.10;;;10.60;99.90;;;;;;5070616;28;20047;-82
2023/06/02 02:08:59;;;;;;;9.20;2.17;;;10.60;99.90;;;;;;5068590;28;20831;-81
2023/06/02 02:11:28;;;;;;;12.73;2.95;;;10.60;99.90;;;;;;5068382;28;20056;-81
2023/06/02 02:13:54;;;;;;;9.45;2.15;;;10.60;99.90;;;;;;5071877;28;20044;-82
2023/06/02 02:16:20;;;;;;;10.15;2.80;;;10.70;99.90;;;;;;5089045;28;20517;-82
2023/06/02 02:18:46;;;;;;;12.75;2.92;;;10.60;99.90;;;;;;5089142;28;20082;-82
2023/06/02 02:21:15;;;;;;;12.35;2.70;;;10.60;99.90;;;;;;5086923;28;20064;-82
2023/06/02 02:23:40;;;;;;;8.07;2.55;;;10.60;99.90;;;;;;5079566;28;20663;-82
2023/06/02 02:26:07;;;;;;;10.95;2.70;;;10.60;99.90;;;;;;5085364;28;20051;-82
2023/06/02 02:28:33;;;;;;;9.43;2.15;;;10.60;99.90;;;;;;5089692;28;20044;-82
2023/06/02 02:30:58;;;;;;;10.60;2.63;;;10.60;99.90;;;;;;5088974;28;20125;-82
2023/06/02 02:33:24;;;;;;;10.30;2.67;;;10.50;99.90;;;;;;5071342;28;20431;-82
2023/06/02 02:35:53;;;;;;;8.57;2.40;;;10.50;99.90;;;;;;5084260;28;20089;-82
2023/06/02 02:38:19;;;;;;;11.90;2.35;;;10.50;99.90;;;;;;5079570;28;20052;-82
2023/06/02 02:40:44;;;;;;;7.18;3.05;;;10.50;99.90;;;;;;5088412;28;20056;-82
2023/06/02 02:43:10;;;;;;;7.88;2.35;;;10.40;99.90;;;;;;5089397;28;20059;-82
2023/06/02 02:45:36;;;;;;;7.75;2.42;;;10.40;99.90;;;;;;5091526;28;20384;-82
2023/06/02 02:48:02;;;;;;;10.52;2.50;;;10.50;99.90;;;;;;5088375;28;20044;-82
2023/06/02 02:50:27;;;;;;;9.10;2.38;;;10.40;99.90;;;;;;5087581;28;20032;-82
2023/06/02 02:52:53;;;;;;;6.78;2.22;;;10.40;99.90;;;;;;5088353;28;20144;-82
2023/06/02 02:55:19;;;;;;;9.10;2.85;;;10.40;99.90;;;;;;5084667;28;20040;-81
2023/06/02 02:57:44;;;;;;;11.50;2.47;;;10.50;99.90;;;;;;5076133;28;20047;-82
2023/06/02 03:00:10;;;;;;;6.10;2.33;;;10.50;99.90;;;;;;5087583;28;20047;-82
2023/06/02 03:02:36;;;;;;;11.90;2.55;;;10.50;99.90;;;;;;5089666;28;20052;-82
2023/06/02 03:05:02;;;;;;;10.20;2.78;;;10.50;99.90;;;;;;5077640;28;20055;-82
2023/06/02 03:07:31;;;;;;;5.32;1.90;;;10.50;99.90;;;;;;5071977;28;20044;-82
2023/06/02 03:09:57;;;;;;;14.90;2.63;;;10.50;99.90;;;;;;5086920;28;20040;-82
2023/06/02 03:12:23;;;;;;;9.63;2.00;;;10.50;99.90;;;;;;5087332;28;20062;-82
2023/06/02 03:14:48;;;;;;;13.55;3.10;;;10.50;99.90;;;;;;5085919;28;20074;-81
2023/06/02 03:17:14;;;;;;;11.43;2.25;;;10.50;99.90;;;;;;5085555;28;20457;-82
2023/06/02 03:19:40;;;;;;;11.25;2.35;;;10.50;99.90;;;;;;5085401;28;20051;-82
2023/06/02 03:22:06;;;;;;;10.07;2.20;;;10.50;99.90;;;;;;5080801;28;20135;-82
2023/06/02 03:24:32;;;;;;;9.23;2.50;;;10.50;99.90;;;;;;5074418;28;20040;-83
2023/06/02 03:26:58;;;;;;;14.02;2.92;;;10.50;99.90;;;;;;5067180;28;20416;-82
2023/06/02 03:29:23;;;;;;;8.73;2.83;;;10.50;99.90;;;;;;5068551;28;20048;-81
2023/06/02 03:31:51;;;;;;;10.35;2.92;;;10.50;99.90;;;;;;5086020;28;20472;-82
2023/06/02 03:34:17;;;;;;;8.10;2.15;;;10.70;99.90;;;;;;5099148;28;20097;-82
2023/06/02 03:36:43;;;;;;;9.57;2.08;;;10.50;99.90;;;;;;5087656;28;20445;-82
2023/06/02 03:39:09;;;;;;;10.02;2.55;;;10.50;99.90;;;;;;5084134;28;20048;-82
2023/06/02 03:41:36;;;;;;;15.32;2.53;;;10.50;99.90;;;;;;5075920;28;20084;-82
2023/06/02 03:44:03;;;;;;;8.52;2.30;;;10.50;99.90;;;;;;5074798;28;20054;-82
2023/06/02 03:46:29;;;;;;;8.38;1.90;;;10.50;99.90;;;;;;5082833;28;20490;-82
2023/06/02 03:48:55;;;;;;;8.05;2.22;;;10.50;99.90;;;;;;5066953;28;20090;-82
2023/06/02 03:51:20;;;;;;;6.50;2.55;;;10.50;99.90;;;;;;5070328;28;20068;-82
2023/06/02 03:53:46;;;;;;;11.32;2.55;;;10.50;99.90;;;;;;5070157;28;20051;-82
2023/06/02 03:56:12;;;;;;;13.05;2.40;;;10.50;99.90;;;;;;5066102;28;20040;-82
2023/06/02 03:58:38;;;;;;;9.88;2.50;;;10.90;99.90;;;;;;5081513;28;20044;-83
2023/06/02 04:01:04;;;;;;;9.60;2.03;;;10.50;99.90;;;;;;5088018;28;20043;-82
2023/06/02 04:03:32;;;;;;;10.30;2.65;;;10.50;99.90;;;;;;5086250;28;20423;-82
2023/06/02 04:05:59;;;;;;;9.50;2.17;;;10.60;99.90;;;;;;5065865;28;20036;-83
2023/06/02 04:08:25;;;;;;;10.00;2.15;;;10.60;99.90;;;;;;5074857;28;20534;-83
2023/06/02 04:10:50;;;;;;;10.45;2.20;;;10.60;99.90;;;;;;5080777;28;20037;-83
2023/06/02 04:13:16;;;;;;;11.23;2.60;;;10.70;99.90;;;;;;5091634;28;20158;-82
2023/06/02 04:15:42;;;;;;;13.50;2.60;;;10.70;99.90;;;;;;5083872;28;20089;-82
2023/06/02 04:18:08;;;;;;;7.22;2.08;;;10.70;99.90;;;;;;5066353;28;20044;-83
2023/06/02 04:20:33;;;;;;;11.45;3.75;;;10.70;99.90;;;;;;5065807;28;20397;-82
2023/06/02 04:22:59;;;;;;;11.30;2.67;;;10.70;99.90;;;;;;5066303;28;20056;-82
2023/06/02 04:25:25;;;;;;;10.15;2.33;;;10.80;99.90;;;;;;5049405;28;20500;-83
2023/06/02 04:27:50;;;;;;;9.10;2.75;;;10.80;99.90;;;;;;5080877;28;20040;-83
2023/06/02 04:30:16;;;;;;;8.38;2.17;;;10.70;99.90;;;;;;5101499;28;21167;-83
2023/06/02 04:32:42;;;;;;;10.73;2.40;;;10.70;99.90;;;;;;5067248;28;20435;-82
2023/06/02 04:35:08;;;;;;;11.30;2.28;;;10.80;99.90;;;;;;5067389;28;20063;-82
2023/06/02 04:37:33;;;;;;;9.82;2.90;;;10.80;99.90;;;;;;5065960;28;20054;-82
2023/06/02 04:40:01;;;;;;;14.65;2.55;;;10.80;99.90;;;;;;5059699;28;20052;-82
2023/06/02 04:42:27;;;;;;;13.18;2.47;;;10.80;99.90;;;;;;5065977;28;20057;-82
2023/06/02 04:44:53;;;;;;;13.52;3.28;;;10.80;99.90;;;;;;5073250;28;20051;-83
2023/06/02 04:47:19;;;;;;;9.05;2.30;;;10.90;99.90;;;;;;5085413;28;20051;-83
2023/06/02 04:49:45;;;;;;;9.10;2.45;;;10.90;99.90;;;;;;5084887;28;20151;-82
2023/06/02 04:52:11;;;;;;;7.28;2.17;;;10.90;99.90;;;;;;5075799;28;20489;-82
2023/06/02 04:54:37;;;;;;;8.30;2.72;;;11.00;99.90;;;;;;5050796;28;20507;-83
2023/06/02 04:57:05;;;;;;;8.98;2.13;;;11.00;99.90;;;;;;5050323;28;20528;-83
2023/06/02 04:59:35;;;;;;;9.80;2.08;;;11.00;99.90;;;;;;5078892;28;20605;-82
2023/06/02 05:02:01;;;;;;;8.88;2.70;;;11.40;99.90;;;;;;5084712;28;20051;-83
2023/06/02 05:04:27;;;;;;;9.68;2.30;;;11.10;99.90;;;;;;5070927;28;20458;-83
2023/06/02 05:06:53;;;;;;;14.95;3.33;;;11.10;99.90;;;;;;5089725;28;20044;-82
2023/06/02 05:09:19;;;;;;;12.98;2.42;;;11.20;99.90;;;;;;5073465;28;20835;-82
2023/06/02 05:11:44;;;;;;;12.50;3.00;;;11.20;99.90;;;;;;5087061;28;20067;-82
2023/06/02 05:14:10;;;;;;;11.30;2.22;;;11.20;99.90;;;;;;5075882;28;20045;-83
2023/06/02 05:16:36;;;;;;;9.60;2.13;;;11.30;99.90;;;;;;5081433;28;20036;-83
2023/06/02 05:19:03;;;;;;;14.43;3.35;;;11.30;99.90;;;;;;5070497;28;20046;-82
2023/06/02 05:21:30;;;;;;;12.52;2.40;;;11.40;99.90;;;;;;5072467;28;20071;-83
2023/06/02 05:23:58;;;;;;;10.13;2.70;;;11.40;99.90;;;;;;5078101;28;20047;-83
2023/06/02 05:26:23;;;;;;;12.15;2.50;;;11.40;99.90;;;;;;5091408;28;20052;-83
2023/06/02 05:28:50;;;;;;;8.50;2.75;;;11.50;99.90;;;;;;5079221;28;20052;-83
2023/06/02 05:31:16;;;;;;;9.15;2.28;;;11.50;99.90;;;;;;5080301;28;20159;-83
2023/06/02 05:33:41;;;;;;;11.40;2.65;;;11.60;99.90;;;;;;5059100;28;20051;-82
2023/06/02 05:36:07;;;;;;;10.00;2.88;;;11.60;99.90;;;;;;5106121;28;20052;-82
2023/06/02 05:38:33;;;;;;;14.07;2.85;;;11.60;99.90;;;;;;5110353;28;20566;-83
2023/06/02 05:40:58;;;;;;;14.50;3.10;;;11.70;99.90;;;;;;5110029;28;20107;-83
2023/06/02 05:43:24;;;;;;;9.15;2.30;;;11.70;99.90;;;;;;5091202;28;20052;-82
2023/06/02 05:45:49;;;;;;;11.43;3.20;;;11.70;99.90;;;;;;5081459;28;20039;-83
2023/06/02 05:48:15;;;;;;;15.10;4.00;;;11.70;99.90;;;;;;5069424;28;20055;-83
2023/06/02 05:50:42;;;;;;;9.73;2.97;;;11.70;99.90;;;;;;5093812;28;20100;-83
2023/06/02 05:53:10;;;;;;;14.25;3.50;;;11.70;99.90;;;;;;5096496;28;20040;-83
2023/06/02 05:55:37;;;;;;;13.85;3.13;;;11.80;99.90;;;;;;5073023;28;20466;-83
2023/06/02 05:58:02;;;;;;;10.35;2.97;;;11.80;99.90;;;;;;5089824;28;20051;-85
2023/06/02 06:00:28;;;;;;;12.45;3.53;;;11.80;99.90;;;;;;5089812;28;20556;-86
2023/06/02 06:02:53;;;;;;;12.30;2.95;;;11.90;99.90;;;;;;5089203;28;20869;-86
2023/06/02 06:05:19;;;;;;;16.67;3.35;;;11.90;99.90;;;;;;5090699;28;20048;-86
2023/06/02 06:07:45;;;;;;;10.27;3.20;;;12.00;99.90;;;;;;5092399;28;20419;-93
2023/06/02 06:10:10;;;;;;;10.73;3.72;;;12.30;99.90;;;;;;5093749;28;20121;-92
2023/06/02 06:12:36;;;;;;;8.13;3.08;;;12.20;99.90;;;;;;5088741;28;20058;-86
2023/06/02 06:15:01;;;;;;;10.57;2.97;;;12.20;99.90;;;;;;5088784;28;20051;-86
2023/06/02 06:17:27;;;;;;;8.60;2.50;;;12.30;99.90;;;;;;5097847;28;20198;-87
2023/06/02 06:19:53;;;;;;;15.88;3.45;;;12.30;99.90;;;;;;5089020;28;20051;-86
2023/06/02 06:22:18;;;;;;;11.02;2.88;;;12.30;99.90;;;;;;5089117;28;20521;-86
2023/06/02 06:24:44;;;;;;;13.68;3.35;;;12.40;99.90;;;;;;5090652;28;20074;-86
2023/06/02 06:27:11;;;;;;;13.05;2.95;;;12.50;99.90;;;;;;5088863;28;20052;-86
2023/06/02 06:29:37;;;;;;;13.38;3.50;;;12.50;99.90;;;;;;5088580;28;20838;-86
2023/06/02 06:32:05;;;;;;;7.22;2.65;;;12.50;99.90;;;;;;5087584;28;20048;-84
2023/06/02 06:34:31;;;;;;;14.20;4.30;;;12.50;99.90;;;;;;5089149;28;20055;-85
2023/06/02 06:36:57;;;;;;;15.52;4.75;;;12.60;99.90;;;;;;5087697;28;20032;-87
2023/06/02 06:39:22;;;;;;;13.95;3.55;;;12.60;99.90;;;;;;5088982;28;20043;-87
2023/06/02 06:41:48;;;;;;;15.93;4.10;;;12.70;99.90;;;;;;5089924;28;20076;-86
2023/06/02 06:44:14;;;;;;;12.75;2.75;;;13.10;99.90;;;;;;5093020;28;20988;-90
2023/06/02 06:46:40;;;;;;;11.98;3.30;;;12.80;99.90;;;;;;5090981;28;20411;-89
2023/06/02 06:49:05;;;;;;;15.77;3.53;;;12.90;99.90;;;;;;5091705;28;20040;-93
2023/06/02 06:51:31;;;;;;;11.30;3.33;;;13.00;99.90;;;;;;5066939;28;20082;-91
2023/06/02 06:53:59;;;;;;;10.45;2.90;;;13.00;99.90;;;;;;5072363;28;20045;-90
2023/06/02 06:56:25;;;;;;;11.50;3.17;;;13.00;99.90;;;;;;5069149;28;20066;-86
2023/06/02 06:58:51;;;;;;;13.93;3.30;;;13.00;99.90;;;;;;5069446;28;20044;-86
2023/06/02 07:01:17;;;;;;;14.20;4.57;;;13.00;99.90;;;;;;5069082;28;20040;-89
2023/06/02 07:03:42;;;;;;;14.68;4.05;;;13.10;99.90;;;;;;5097364;28;20466;-85
2023/06/02 07:06:08;;;;;;;14.43;3.88;;;13.20;99.90;;;;;;5087534;28;20044;-86
2023/06/02 07:08:35;;;;;;;12.07;3.58;;;13.30;99.90;;;;;;5083274;28;20055;-85
2023/06/02 07:11:01;;;;;;;10.88;3.08;;;13.30;99.90;;;;;;5088706;28;20048;-86
2023/06/02 07:13:29;;;;;;;14.80;4.10;;;13.30;99.90;;;;;;5087652;28;20834;-85
2023/06/02 07:15:55;;;;;;;16.17;4.32;;;13.40;99.90;;;;;;5083762;28;20052;-87
2023/06/02 07:18:21;;;;;;;13.20;3.53;;;13.40;99.90;;;;;;5084374;28;20100;-86
2023/06/02 07:20:46;;;;;;;16.90;3.78;;;13.70;99.90;;;;;;5085109;28;20396;-85
2023/06/02 07:23:12;;;;;;;11.45;3.40;;;13.60;99.90;;;;;;5087985;28;20040;-85
2023/06/02 07:25:38;;;;;;;15.38;3.97;;;13.80;99.90;;;;;;5102407;28;20051;-84
2023/06/02 07:28:04;;;;;;;15.52;3.80;;;14.30;99.90;;;;;;5108935;28;20082;-84
2023/06/02 07:30:31;;;;;;;11.35;3.83;;;14.00;99.90;;;;;;5106608;28;20047;-83
2023/06/02 07:32:57;;;;;;;14.45;3.85;;;14.10;99.90;;;;;;5084468;28;20109;-83
2023/06/02 07:35:23;;;;;;;16.40;4.35;;;14.20;99.90;;;;;;5074687;28;20040;-83
2023/06/02 07:37:53;;;;;;;9.43;3.35;;;14.20;99.90;;;;;;5091385;28;20045;-83
2023/06/02 07:40:19;;;;;;;14.75;4.05;;;14.30;99.90;;;;;;5069120;28;20106;-83
2023/06/02 07:42:46;;;;;;;16.65;4.07;;;14.40;99.90;;;;;;5066928;28;20041;-84
2023/06/02 07:45:12;;;;;;;17.88;4.00;;;14.20;99.90;;;;;;5067959;28;20131;-83
2023/06/02 07:47:38;;;;;;;21.38;4.07;;;14.40;99.90;;;;;;5067423;28;20044;-83
2023/06/02 07:50:04;;;;;;;9.55;3.45;;;14.50;99.90;;;;;;5080754;28;20041;-84
2023/06/02 07:52:29;;;;;;;16.42;3.92;;;14.60;99.90;;;;;;5095905;28;20115;-83
2023/06/02 07:54:55;;;;;;;12.38;3.92;;;15.00;99.90;;;;;;5086526;28;20245;-83
2023/06/02 07:57:21;;;;;;;13.88;4.07;;;15.10;99.90;;;;;;5085054;28;20067;-83
2023/06/02 07:59:48;;;;;;;16.90;4.28;;;15.10;99.90;;;;;;5084955;28;20285;-84
2023/06/02 08:02:13;;;;;;;15.18;4.38;;;15.40;99.90;;;;;;5068434;28;20078;-84
2023/06/02 08:04:39;;;;;;;14.88;3.90;;;15.60;99.90;;;;;;5086778;28;20048;-84
2023/06/02 08:07:05;;;;;;;20.80;4.97;;;15.80;99.90;;;;;;5069558;28;20048;-84
2023/06/02 08:09:30;;;;;;;14.13;4.32;;;16.00;99.90;;;;;;5085173;28;20134;-84
2023/06/02 08:11:56;;;;;;;12.40;3.45;;;16.20;99.90;;;;;;5106907;28;20077;-84
2023/06/02 08:14:21;;;;;;;16.23;3.67;;;16.60;99.90;;;;;;5090435;28;20126;-84
2023/06/02 08:16:48;;;;;;;13.73;4.50;;;17.00;99.90;;;;;;5108926;28;20054;-84
2023/06/02 08:19:13;;;;;;;12.73;4.00;;;17.30;99.90;;;;;;5106291;28;20051;-84
2023/06/02 08:21:40;;;;;;;13.20;4.13;;;17.20;99.90;;;;;;5106928;28;20051;-84
2023/06/02 08:24:06;;;;;;;13.95;3.88;;;17.20;99.90;;;;;;5103237;28;20067;-84
2023/06/02 08:26:32;;;;;;;16.38;4.53;;;17.40;99.90;;;;;;5088329;28;20076;-84
2023/06/02 08:28:58;;;;;;;7.32;3.42;;;17.20;99.90;;;;;;5069170;28;20050;-84
2023/06/02 08:31:23;;;;;;;11.55;4.18;;;17.20;99.90;;;;;;5086863;28;20091;-84
2023/06/02 08:33:52;;;;;;;11.50;3.72;;;17.30;99.90;;;;;;5087142;28;20083;-84
2023/06/02 08:36:19;;;;;;;13.00;4.30;;;17.40;99.90;;;;;;5087665;28;20047;-84
2023/06/02 08:38:47;;;;;;;10.18;3.67;;;17.80;99.90;;;;;;5086833;28;20080;-84
2023/06/02 08:41:13;;;;;;;11.70;4.00;;;18.00;99.90;;;;;;5095045;28;20142;-84
2023/06/02 08:43:39;;;;;;;12.85;3.70;;;18.20;99.90;;;;;;5108654;28;20565;-84
2023/06/02 08:46:07;;;;;;;10.05;3.22;;;18.40;99.20;;;;;;5107216;28;20418;-84
2023/06/02 08:48:35;;;;;;;9.60;3.55;;;18.80;98.30;;;;;;5108751;28;20057;-84
2023/06/02 08:51:03;;;;;;;11.48;3.30;;;18.80;97.30;;;;;;5107698;28;20539;-83
2023/06/02 08:53:29;;;;;;;9.38;2.83;;;19.10;96.50;;;;;;5108584;28;20047;-84
2023/06/02 08:55:55;;;;;;;11.00;3.35;;;19.10;95.40;;;;;;5092815;28;20052;-84
2023/06/02 08:58:21;;;;;;;8.60;3.03;;;19.20;93.90;;;;;;5087756;28;20050;-84
2023/06/02 09:00:46;;;;;;;10.50;3.22;;;18.90;93.00;;;;;;5086475;28;20047;-84
2023/06/02 09:03:13;;;;;;;7.63;3.08;;;19.10;93.10;;;;;;5088420;28;20074;-84
2023/06/02 09:05:39;;;;;;;6.10;2.88;;;18.80;92.50;;;;;;5088140;28;20075;-85
2023/06/02 09:08:13;;;;;;;9.38;4.00;;;18.90;92.20;;;;;;5087493;28;20052;-84
2023/06/02 09:10:42;;;;;;;8.13;2.95;;;19.00;90.10;;;;;;5096831;28;20058;-84
2023/06/02 09:13:33;;;;;;;11.20;3.20;;;18.80;90.60;;;;;;5107764;28;20054;-84
2023/06/02 09:16:03;;;;;;;8.97;3.27;;;18.60;90.20;;;;;;5106462;28;20048;-84
2023/06/02 09:18:29;;;;;;;7.88;2.90;;;18.70;90.70;;;;;;5107431;28;20043;-84
2023/06/02 09:20:58;;;;;;;11.82;3.22;;;18.80;90.30;;;;;;5107172;28;20112;-83
2023/06/02 09:23:43;;;;;;;10.05;3.08;;;19.10;90.20;;;;;;5107817;28;20414;-84
2023/06/02 09:26:22;;;;;;;11.07;2.95;;;19.40;87.90;;;;;;5106199;28;20051;-84
2023/06/02 09:29:01;;;;;;;10.32;2.95;;;19.60;85.70;;;;;;5107992;28;20043;-84
2023/06/02 09:31:28;;;;;;;10.63;2.70;;;19.80;84.80;;;;;;5106778;28;20053;-83
2023/06/02 09:33:58;;;;;;;8.30;2.65;;;20.20;85.10;;;;;;5105203;28;20040;-83
2023/06/02 09:36:29;;;;;;;5.90;2.65;;;20.40;81.70;;;;;;5092862;28;20125;-84
2023/06/02 09:38:54;;;;;;;10.00;2.50;;;20.50;81.80;;;;;;5089069;28;20051;-84
2023/06/02 09:41:20;;;;;;;7.90;2.03;;;20.70;81.80;;;;;;5107448;28;20036;-84
2023/06/02 09:43:46;;;;;;;8.80;2.63;;;21.10;81.00;;;;;;5107496;28;20043;-84
2023/06/02 09:46:14;;;;;;;4.57;2.00;;;21.20;78.70;;;;;;5108338;28;20491;-83
2023/06/02 09:48:56;;;;;;;5.72;2.03;;;20.90;77.60;;;;;;5110157;28;20043;-83
2023/06/02 09:51:23;;;;;;;5.80;1.90;;;20.80;75.70;;;;;;5100800;28;20044;-84
2023/06/02 09:53:50;;;;;;;8.63;2.42;;;20.70;76.40;;;;;;5091070;28;20052;-83
2023/06/02 09:56:21;;;;;;;5.85;2.00;;;20.50;76.40;;;;;;5092754;28;20044;-84
2023/06/02 09:58:46;;;;;;;6.30;2.10;;;20.60;76.60;;;;;;5092823;28;20055;-84
2023/06/02 10:01:13;;;;;;;7.07;2.20;;;20.10;75.70;;;;;;5091203;28;20040;-84
2023/06/02 10:03:43;;;;;;;5.55;2.22;;;19.90;76.20;;;;;;5090563;28;20044;-83
2023/06/02 10:06:31;;;;;;;5.47;2.10;;;20.30;75.50;;;;;;5094924;28;20044;-84
2023/06/02 10:09:35;;;;;;;3.92;2.05;;;20.10;74.80;;;;;;5073859;28;20046;-84
2023/06/02 10:12:19;;;;;;;6.55;1.90;;;20.30;72.30;;;;;;5091277;28;20499;-85
2023/06/02 10:15:06;;;;;;;10.60;2.50;;;20.30;72.70;;;;;;5072481;28;21061;-84
2023/06/02 10:17:38;;;;;;;4.50;1.80;;;20.40;72.40;;;;;;5090081;28;20047;-83
2023/06/02 10:20:27;;;;;;;7.82;1.98;;;20.50;72.20;;;;;;5092358;28;20055;-83
2023/06/02 10:23:05;;;;;;;6.45;2.00;;;20.50;70.10;;;;;;5107611;28;20051;-84
2023/06/02 10:26:08;;;;;;;7.53;1.70;;;20.60;71.40;;;;;;5068863;28;20048;-84
2023/06/02 10:28:34;;;;;;;7.63;1.80;;;20.90;70.10;;;;;;5069099;28;20052;-83
2023/06/02 10:31:08;;;;;;;5.25;1.50;;;21.30;70.60;;;;;;5052244;28;20048;-84
2023/06/02 10:33:47;;;;;;;6.28;1.63;;;21.60;69.00;;;;;;5070112;28;21049;-83
2023/06/02 10:36:17;;;;;;;4.55;1.67;;;21.80;66.30;;;;;;5068547;28;20049;-84
2023/06/02 10:38:44;;;;;;;9.68;1.50;;;21.80;67.30;;;;;;5077813;28;20044;-84
2023/06/02 10:41:10;;;;;;;5.47;1.63;;;21.60;66.90;;;;;;5088970;28;20058;-83
2023/06/02 10:43:35;;;;;;;4.95;1.52;;;21.30;66.80;;;;;;5088705;28;20415;-83
2023/06/02 10:46:17;;;;;;;4.25;1.65;;;21.10;67.20;;;;;;5089537;28;20067;-84
2023/06/02 10:48:43;;;;;;;5.45;1.70;;;20.80;66.80;;;;;;5077274;28;20158;-86
2023/06/02 10:51:10;;;;;;;3.95;1.42;;;20.80;68.10;;;;;;5068544;28;20123;-85
2023/06/02 10:54:05;;;;;;;3.67;1.52;;;20.50;68.40;;;;;;5069515;28;20450;-84
2023/06/02 10:56:41;;;;;;;2.92;1.30;;;20.60;68.40;;;;;;5076402;28;20056;-85
2023/06/02 10:59:08;;;;;;;5.63;1.45;;;20.60;66.40;;;;;;5078719;28;20040;-83
2023/06/02 11:01:47;;;;;;;3.55;1.52;;;20.70;67.70;;;;;;5105741;28;20054;-85
2023/06/02 11:04:35;;;;;;;2.00;1.00;;;21.00;65.90;;;;;;5108454;28;20051;-86
2023/06/02 11:07:17;;;;;;;1.90;1.00;;;21.50;65.60;;;;;;5110096;28;20058;-83
2023/06/02 11:09:44;;;;;;;2.25;1.45;;;21.70;64.40;;;;;;5081111;28;20045;-84
2023/06/02 11:12:10;;;;;;;3.92;1.52;;;21.80;64.10;;;;;;5083676;28;20074;-85
2023/06/02 11:15:01;;;;;;;2.85;1.27;;;22.00;64.10;;;;;;5091086;28;20482;-84
2023/06/02 11:17:34;;;;;;;2.92;1.13;;;21.60;62.20;;;;;;5107971;28;20079;-85
2023/06/02 11:20:01;;;;;;;2.65;1.23;;;21.40;63.90;;;;;;5085920;28;20048;-86
2023/06/02 11:22:27;;;;;;;8.05;1.67;;;21.30;64.40;;;;;;5087365;28;20081;-86
2023/06/02 11:24:55;;;;;;;4.13;1.40;;;21.10;64.20;;;;;;5093341;28;20041;-90
2023/06/02 11:27:36;;;;;;;4.40;1.42;;;21.10;64.40;;;;;;5093379;28;20040;-92
2023/06/02 11:30:12;;;;;;;3.65;1.15;;;21.30;64.00;;;;;;5096634;28;20120;-89
2023/06/02 11:32:38;;;;;;;2.97;1.35;;;21.50;64.10;;;;;;5091277;28;20047;-89
2023/06/02 11:35:08;;;;;;;3.55;1.13;;;21.60;63.80;;;;;;5092028;28;20044;-92
2023/06/02 11:37:36;;;;;;;2.90;1.20;;;21.80;63.20;;;;;;5092920;28;20141;-90
2023/06/02 11:40:05;;;;;;;1.73;1.20;;;21.60;62.40;;;;;;5093661;28;20206;-93
2023/06/02 11:42:43;;;;;;;2.80;1.30;;;21.40;62.60;;;;;;5092221;28;20055;-93
2023/06/02 11:45:26;;;;;;;3.55;1.20;;;21.70;62.80;;;;;;5096458;28;20046;-94
2023/06/02 11:48:11;;;;;;;3.13;1.30;;;21.30;62.80;;;;;;5087030;28;20058;-93
2023/06/02 11:50:40;;;;;;;3.70;1.55;;;21.10;61.20;;;;;;5100188;28;20471;-93
2023/06/02 11:53:14;;;;;;;2.53;1.23;;;21.10;63.00;;;;;;5095305;28;20089;-90
2023/06/02 11:55:40;;;;;;;3.20;1.27;;;20.70;62.70;;;;;;5093369;28;20047;-92
2023/06/02 11:58:27;;;;;;;2.67;1.30;;;20.60;63.20;;;;;;5094904;28;20040;-92
2023/06/02 12:01:09;;;;;;;2.05;1.10;;;20.40;60.60;;;;;;5094792;28;20034;-89
2023/06/02 12:03:36;;;;;;;2.97;1.42;;;20.30;61.60;;;;;;5091748;28;20040;-89
2023/06/02 12:06:15;;;;;;;3.08;1.40;;;20.20;61.90;;;;;;5071671;28;20147;-89
2023/06/02 12:08:41;;;;;;;4.18;1.35;;;20.30;60.20;;;;;;5070442;28;20044;-88
2023/06/02 12:11:15;;;;;;;5.38;1.38;;;20.50;61.00;;;;;;5068838;28;20139;-89
2023/06/02 12:13:40;;;;;;;3.20;1.20;;;20.60;59.50;;;;;;5053077;28;20076;-89
2023/06/02 12:16:24;;;;;;;4.50;1.15;;;20.70;59.00;;;;;;5069847;28;20404;-87
2023/06/02 12:18:50;;;;;;;4.18;1.33;;;20.70;57.80;;;;;;5071199;28;20071;-90
2023/06/02 12:21:26;;;;;;;3.63;1.25;;;20.80;57.80;;;;;;5089530;28;20040;-89
2023/06/02 12:23:52;;;;;;;1.70;1.20;;;20.90;56.40;;;;;;5090830;28;20036;-92
2023/06/02 12:26:18;;;;;;;5.32;1.30;;;21.00;56.50;;;;;;5091357;28;20109;-90
2023/06/02 12:28:45;;;;;;;2.75;1.10;;;21.20;56.30;;;;;;5091285;28;20044;-92
2023/06/02 12:31:15;;;;;;;3.13;1.23;;;21.40;55.90;;;;;;5088782;28;20372;-95
2023/06/02 12:33:42;;;;;;;3.60;1.33;;;21.30;52.10;;;;;;5056927;28;20040;-89
2023/06/02 12:36:12;;;;;;;2.17;1.27;;;21.00;53.40;;;;;;5089822;28;20044;-89
2023/06/02 12:38:40;;;;;;;2.97;1.30;;;21.00;53.60;;;;;;5092332;28;20044;-90
2023/06/02 12:41:11;;;;;;;2.30;1.65;;;21.10;53.60;;;;;;5091435;28;20108;-90
2023/06/02 12:43:39;;;;;;;2.40;1.35;;;21.20;53.70;;;;;;5090492;28;20115;-88
2023/06/02 12:46:04;;;;;;;2.72;1.20;;;21.30;53.20;;;;;;5091104;28;20052;-90
2023/06/02 12:48:30;;;;;;;3.13;1.30;;;21.40;53.00;;;;;;5091647;28;20743;-89